createdAt,value
2023-03-06T00:00:20.281Z,5.80
2023-03-06T00:02:47.071Z,5.47
2023-03-06T00:05:14.840Z,6.17
2023-03-06T00:07:41.939Z,6.10
2023-03-06T00:10:12.198Z,5.67
2023-03-06T00:12:38.859Z,6.10
2023-03-06T00:15:06.161Z,6.17
2023-03-06T00:17:32.866Z,6.43
2023-03-06T00:19:59.511Z,6.23
2023-03-06T00:22:26.653Z,6.43
2023-03-06T00:24:54.161Z,6.17
2023-03-06T00:27:23.879Z,6.07
2023-03-06T00:29:57.884Z,5.30
2023-03-06T00:32:25.290Z,4.93
2023-03-06T00:34:53.134Z,5.20
2023-03-06T00:37:20.673Z,5.37
2023-03-06T00:39:47.352Z,4.80
2023-03-06T00:42:15.699Z,5.27
2023-03-06T00:44:42.359Z,5.63
2023-03-06T00:47:09.396Z,5.20
2023-03-06T00:49:36.032Z,5.37
2023-03-06T00:52:03.106Z,4.93
2023-03-06T00:54:29.767Z,5.63
2023-03-06T00:56:56.484Z,4.87
2023-03-06T00:59:23.145Z,4.83
2023-03-06T01:01:51.790Z,4.90
2023-03-06T01:04:18.513Z,5.00
2023-03-06T01:06:45.203Z,6.13
2023-03-06T01:09:11.846Z,5.73
2023-03-06T01:11:38.509Z,5.37
2023-03-06T01:14:05.313Z,5.50
2023-03-06T01:16:32.160Z,6.00
2023-03-06T01:18:58.928Z,6.50
2023-03-06T01:21:25.991Z,6.83
2023-03-06T01:23:52.694Z,7.47
2023-03-06T01:26:19.412Z,7.10
2023-03-06T01:28:46.144Z,7.10
2023-03-06T01:31:13.106Z,6.97
2023-03-06T01:33:40.016Z,7.10
2023-03-06T01:36:09.075Z,6.90
2023-03-06T01:38:36.227Z,7.10
2023-03-06T01:41:04.742Z,7.17
2023-03-06T01:43:37.030Z,6.73
2023-03-06T01:46:24.930Z,6.57
2023-03-06T01:49:18.451Z,7.63
2023-03-06T01:51:53.940Z,7.57
2023-03-06T01:54:44.656Z,6.80
2023-03-06T01:57:20.373Z,6.47
2023-03-06T01:59:52.974Z,6.40
2023-03-06T02:02:20.761Z,5.60
2023-03-06T02:04:47.812Z,7.03
2023-03-06T02:07:16.520Z,6.73
2023-03-06T02:09:43.191Z,6.73
2023-03-06T02:12:12.647Z,6.83
2023-03-06T02:14:41.180Z,5.93
2023-03-06T02:17:10.534Z,6.00
2023-03-06T02:20:13.070Z,6.57
2023-03-06T02:23:03.040Z,5.97
2023-03-06T02:25:43.175Z,6.63
2023-03-06T02:28:14.297Z,6.90
2023-03-06T02:30:42.745Z,6.57
2023-03-06T02:33:22.482Z,6.70
2023-03-06T02:36:13.367Z,6.27
2023-03-06T02:38:49.825Z,5.90
2023-03-06T02:41:17.384Z,6.30
2023-03-06T02:43:48.799Z,6.77
2023-03-06T02:46:15.627Z,5.93
2023-03-06T02:48:42.414Z,6.30
2023-03-06T02:51:09.130Z,5.63
2023-03-06T02:53:35.826Z,5.90
2023-03-06T02:56:02.513Z,5.83
2023-03-06T02:58:29.233Z,7.00
2023-03-06T03:00:55.932Z,6.57
2023-03-06T03:03:22.998Z,9.30
2023-03-06T03:05:49.636Z,6.50
2023-03-06T03:08:23.446Z,6.93
2023-03-06T03:10:55.742Z,6.47
2023-03-06T03:13:23.749Z,6.97
2023-03-06T03:16:06.140Z,7.57
2023-03-06T03:18:34.204Z,8.03
2023-03-06T03:21:01.443Z,7.53
2023-03-06T03:23:28.558Z,7.50
2023-03-06T03:26:16.520Z,6.90
2023-03-06T03:28:48.187Z,7.77
2023-03-06T03:31:17.791Z,7.23
2023-03-06T03:33:44.607Z,7.00
2023-03-06T03:36:12.473Z,6.93
2023-03-06T03:38:42.417Z,6.57
2023-03-06T03:41:10.194Z,6.33
2023-03-06T03:43:36.919Z,6.67
2023-03-06T03:46:03.840Z,6.20
2023-03-06T03:48:30.986Z,6.70
2023-03-06T03:51:08.813Z,6.73
2023-03-06T03:53:39.377Z,6.63
2023-03-06T03:56:07.443Z,6.30
2023-03-06T03:58:39.760Z,6.80
2023-03-06T04:01:07.053Z,7.33
2023-03-06T04:03:34.404Z,6.73
2023-03-06T04:06:02.034Z,7.10
2023-03-06T04:08:29.025Z,6.70
2023-03-06T04:10:56.314Z,7.10
2023-03-06T04:13:24.167Z,6.90
2023-03-06T04:15:53.100Z,7.23
2023-03-06T04:18:23.064Z,6.73
2023-03-06T04:20:50.205Z,7.10
2023-03-06T04:23:18.605Z,7.70
2023-03-06T04:25:45.992Z,7.17
2023-03-06T04:28:13.342Z,7.67
2023-03-06T04:30:40.069Z,7.20
2023-03-06T04:33:07.738Z,8.03
2023-03-06T04:35:35.131Z,7.20
2023-03-06T04:38:06.853Z,8.10
2023-03-06T04:40:35.076Z,7.30
2023-03-06T04:43:04.087Z,8.37
2023-03-06T04:45:32.446Z,7.10
2023-03-06T04:47:59.331Z,7.63
2023-03-06T04:50:28.300Z,7.70
2023-03-06T04:52:55.003Z,7.87
2023-03-06T04:55:21.668Z,8.07
2023-03-06T04:57:48.625Z,8.07
2023-03-06T05:00:19.585Z,7.03
2023-03-06T05:02:47.422Z,18.90
2023-03-06T05:05:15.405Z,15.47
2023-03-06T05:07:42.280Z,7.87
2023-03-06T05:10:12.603Z,6.80
2023-03-06T05:12:39.545Z,9.03
2023-03-06T05:15:07.677Z,7.87
2023-03-06T05:17:34.483Z,7.60
2023-03-06T05:20:01.248Z,7.10
2023-03-06T05:22:27.941Z,7.13
2023-03-06T05:24:54.578Z,7.90
2023-03-06T05:27:21.325Z,7.80
2023-03-06T05:29:48.024Z,7.73
2023-03-06T05:32:16.193Z,7.17
2023-03-06T05:34:42.941Z,7.13
2023-03-06T05:37:09.617Z,7.83
2023-03-06T05:39:36.256Z,8.00
2023-03-06T05:42:02.961Z,8.10
2023-03-06T05:44:33.711Z,7.80
2023-03-06T05:47:00.748Z,7.87
2023-03-06T05:49:32.604Z,9.30
2023-03-06T05:51:59.599Z,7.93
2023-03-06T05:54:26.775Z,8.10
2023-03-06T05:56:53.573Z,8.00
2023-03-06T05:59:20.595Z,7.37
2023-03-06T06:01:47.286Z,8.53
2023-03-06T06:04:13.942Z,7.60
2023-03-06T06:06:40.619Z,7.03
2023-03-06T06:09:07.253Z,7.03
2023-03-06T06:11:33.969Z,7.73
2023-03-06T06:14:00.614Z,8.53
2023-03-06T06:16:27.248Z,7.90
2023-03-06T06:18:53.874Z,7.37
2023-03-06T06:21:20.832Z,8.50
2023-03-06T06:23:47.521Z,7.50
2023-03-06T06:26:14.221Z,8.50
2023-03-06T06:28:40.934Z,7.83
2023-03-06T06:31:12.145Z,7.63
2023-03-06T06:33:40.046Z,7.60
2023-03-06T06:36:18.816Z,8.10
2023-03-06T06:38:45.572Z,8.10
2023-03-06T06:41:36.075Z,7.73
2023-03-06T06:43:59.215Z,7.97
2023-03-06T06:47:10.806Z,7.90
2023-03-06T06:49:14.132Z,8.03
2023-03-06T06:51:41.695Z,8.93
2023-03-06T06:54:08.447Z,8.00
2023-03-06T06:56:35.291Z,7.47
2023-03-06T06:59:15.698Z,8.57
2023-03-06T07:01:43.801Z,8.23
2023-03-06T07:04:13.429Z,8.20
2023-03-06T07:06:40.761Z,8.43
2023-03-06T07:09:07.521Z,7.90
2023-03-06T07:11:34.217Z,8.37
2023-03-06T07:14:01.794Z,8.63
2023-03-06T07:16:28.527Z,9.37
2023-03-06T07:18:55.330Z,8.67
2023-03-06T07:21:22.026Z,9.80
2023-03-06T07:23:48.710Z,8.53
2023-03-06T07:26:15.377Z,8.80
2023-03-06T07:28:51.934Z,9.23
2023-03-06T07:31:24.383Z,8.77
2023-03-06T07:33:52.653Z,8.13
2023-03-06T07:36:20.314Z,7.90
2023-03-06T07:38:47.431Z,8.03
2023-03-06T07:41:16.250Z,7.77
2023-03-06T07:43:44.265Z,8.30
2023-03-06T07:46:14.147Z,8.03
2023-03-06T07:48:41.798Z,8.23
2023-03-06T07:51:13.611Z,7.97
2023-03-06T07:53:40.297Z,8.30
2023-03-06T07:56:08.951Z,7.80
2023-03-06T07:58:38.019Z,8.50
2023-03-06T08:01:11.164Z,8.27
2023-03-06T08:03:38.164Z,6.90
2023-03-06T08:06:16.848Z,7.97
2023-03-06T08:08:45.709Z,7.47
2023-03-06T08:11:14.970Z,8.33
2023-03-06T08:13:41.873Z,8.37
2023-03-06T08:16:09.569Z,7.60
2023-03-06T08:18:39.437Z,7.63
2023-03-06T08:21:11.911Z,7.57
2023-03-06T08:23:39.470Z,7.40
2023-03-06T08:26:14.488Z,7.97
2023-03-06T08:28:41.467Z,7.77
2023-03-06T08:31:27.091Z,7.67
2023-03-06T08:33:55.143Z,7.67
2023-03-06T08:36:22.248Z,8.33
2023-03-06T08:38:48.915Z,7.80
2023-03-06T08:41:15.692Z,7.70
2023-03-06T08:43:42.767Z,8.53
2023-03-06T08:46:10.537Z,8.50
2023-03-06T08:48:37.536Z,7.97
2023-03-06T08:51:04.460Z,7.93
2023-03-06T08:53:42.592Z,7.80
2023-03-06T08:56:42.755Z,8.67
2023-03-06T08:59:11.914Z,8.20
2023-03-06T09:01:39.031Z,8.23
2023-03-06T09:04:11.618Z,7.87
2023-03-06T09:06:41.427Z,8.07
2023-03-06T09:09:08.820Z,7.90
2023-03-06T09:11:35.894Z,7.90
2023-03-06T09:14:02.831Z,7.60
2023-03-06T09:16:29.531Z,8.83
2023-03-06T09:18:57.790Z,8.13
2023-03-06T09:21:26.076Z,9.13
2023-03-06T09:23:52.775Z,8.77
2023-03-06T09:26:19.613Z,8.10
2023-03-06T09:28:47.002Z,8.63
2023-03-06T09:31:19.238Z,9.53
2023-03-06T09:33:46.869Z,8.40
2023-03-06T09:36:19.389Z,8.70
2023-03-06T09:38:48.300Z,8.83
2023-03-06T09:41:39.178Z,8.53
2023-03-06T09:44:08.710Z,8.80
2023-03-06T09:47:03.666Z,9.30
2023-03-06T09:50:11.735Z,8.37
2023-03-06T09:53:08.663Z,9.87
2023-03-06T09:55:40.190Z,9.27
2023-03-06T09:58:19.975Z,9.47
2023-03-06T10:00:51.323Z,9.70
2023-03-06T10:03:25.722Z,8.80
2023-03-06T10:06:22.417Z,9.10
2023-03-06T10:09:00.564Z,8.50
2023-03-06T10:11:47.173Z,9.47
2023-03-06T10:14:35.015Z,8.90
2023-03-06T10:17:02.320Z,9.10
2023-03-06T10:19:37.519Z,9.40
2023-03-06T10:22:07.334Z,10.00
2023-03-06T10:25:02.592Z,10.47
2023-03-06T10:27:47.898Z,12.20
2023-03-06T10:30:32.851Z,12.07
2023-03-06T10:33:02.692Z,11.50
2023-03-06T10:35:47.532Z,11.50
2023-03-06T10:38:19.594Z,10.40
2023-03-06T10:40:57.996Z,10.50
2023-03-06T10:43:25.638Z,11.30
2023-03-06T10:45:53.578Z,10.43
2023-03-06T10:48:23.903Z,11.47
2023-03-06T10:50:51.547Z,11.20
2023-03-06T10:53:29.037Z,11.97
2023-03-06T10:56:00.997Z,10.70
2023-03-06T10:58:30.116Z,10.23
2023-03-06T11:01:09.360Z,10.03
2023-03-06T11:03:37.425Z,9.47
2023-03-06T11:06:13.193Z,8.73
2023-03-06T11:08:42.482Z,9.63
2023-03-06T11:11:36.376Z,9.00
2023-03-06T11:14:15.172Z,9.07
2023-03-06T11:16:52.657Z,7.37
2023-03-06T11:19:25.591Z,7.20
2023-03-06T11:22:01.160Z,6.33
2023-03-06T11:24:40.512Z,6.70
2023-03-06T11:27:30.387Z,5.57
2023-03-06T11:29:59.626Z,7.03
2023-03-06T11:32:40.372Z,7.03
2023-03-06T11:35:21.199Z,9.13
2023-03-06T11:37:53.094Z,8.37
2023-03-06T11:40:37.268Z,7.70
2023-03-06T11:43:07.180Z,8.53
2023-03-06T11:45:44.824Z,8.83
2023-03-06T11:48:14.504Z,7.37
2023-03-06T11:51:03.868Z,7.60
2023-03-06T11:53:34.836Z,7.97
2023-03-06T11:56:19.147Z,8.50
2023-03-06T11:59:03.215Z,8.67
2023-03-06T12:01:47.042Z,8.93
2023-03-06T12:04:30.693Z,8.07
2023-03-06T12:07:25.784Z,8.50
2023-03-06T12:13:05.310Z,7.53
2023-03-06T12:16:09.571Z,8.43
2023-03-06T12:18:39.096Z,8.27
2023-03-06T12:21:17.060Z,8.23
2023-03-06T12:23:52.648Z,8.13
2023-03-06T12:26:33.973Z,8.40
2023-03-06T12:29:18.828Z,7.27
2023-03-06T12:32:04.408Z,7.70
2023-03-06T12:34:34.553Z,6.63
2023-03-06T12:37:08.004Z,6.90
2023-03-06T12:39:42.726Z,6.27
2023-03-06T12:42:23.387Z,5.87
2023-03-06T12:45:30.092Z,6.27
2023-03-06T12:47:58.230Z,5.67
2023-03-06T12:50:30.575Z,5.63
2023-03-06T12:53:06.985Z,5.90
2023-03-06T12:55:47.021Z,5.67
2023-03-06T12:58:31.372Z,5.13
2023-03-06T13:01:06.912Z,5.27
2023-03-06T13:03:49.044Z,4.90
2023-03-06T13:06:51.204Z,4.20
2023-03-06T13:09:31.541Z,4.53
2023-03-06T13:12:34.959Z,4.87
2023-03-06T13:15:37.807Z,4.10
2023-03-06T13:18:22.747Z,4.40
2023-03-06T13:20:53.003Z,4.80
2023-03-06T13:23:43.072Z,4.17
2023-03-06T13:26:09.707Z,4.33
2023-03-06T13:28:46.068Z,5.10
2023-03-06T13:31:26.491Z,6.43
2023-03-06T13:33:55.731Z,6.93
2023-03-06T13:36:29.522Z,6.37
2023-03-06T13:38:57.064Z,6.60
2023-03-06T13:41:23.654Z,6.17
2023-03-06T13:43:53.052Z,6.03
2023-03-06T13:46:28.858Z,6.87
2023-03-06T13:49:10.632Z,6.77
2023-03-06T13:52:04.869Z,6.70
2023-03-06T13:54:54.119Z,6.63
2023-03-06T13:57:48.125Z,6.90
2023-03-06T14:00:33.782Z,8.07
2023-03-06T14:03:25.214Z,7.83
2023-03-06T14:05:52.485Z,7.70
2023-03-06T14:08:26.990Z,8.33
2023-03-06T14:11:13.325Z,8.13
2023-03-06T14:13:48.291Z,9.50
2023-03-06T14:16:24.266Z,9.33
2023-03-06T14:18:53.964Z,8.83
2023-03-06T14:21:39.977Z,8.93
2023-03-06T14:24:06.689Z,9.23
2023-03-06T14:26:40.265Z,9.33
2023-03-06T14:29:19.847Z,10.23
2023-03-06T14:31:49.803Z,10.40
2023-03-06T14:34:25.365Z,10.53
2023-03-06T14:37:05.415Z,10.53
2023-03-06T14:39:39.408Z,10.60
2023-03-06T14:42:24.658Z,11.40
2023-03-06T14:45:03.138Z,11.17
2023-03-06T14:47:36.041Z,11.53
2023-03-06T14:50:19.881Z,11.93
2023-03-06T14:52:47.230Z,11.77
2023-03-06T14:55:22.385Z,11.97
2023-03-06T14:57:56.563Z,11.80
2023-03-06T15:00:26.863Z,12.20
2023-03-06T15:02:55.503Z,11.30
2023-03-06T15:05:29.316Z,13.20
2023-03-06T15:08:01.875Z,12.40
2023-03-06T15:10:31.267Z,11.70
2023-03-06T15:13:27.178Z,11.67
2023-03-06T15:16:01.609Z,11.60
2023-03-06T15:18:35.336Z,11.90
2023-03-06T15:21:09.556Z,12.57
2023-03-06T15:23:39.501Z,11.57
2023-03-06T15:26:29.362Z,11.30
2023-03-06T15:29:19.891Z,12.37
2023-03-06T15:31:46.886Z,11.00
2023-03-06T15:34:18.576Z,10.80
2023-03-06T15:36:48.184Z,10.37
2023-03-06T15:39:41.015Z,9.33
2023-03-06T15:42:07.886Z,9.87
2023-03-06T15:44:34.905Z,8.80
2023-03-06T15:47:09.383Z,10.00
2023-03-06T15:49:38.181Z,9.73
2023-03-06T15:52:06.302Z,10.10
2023-03-06T15:54:33.400Z,9.23
2023-03-06T15:57:00.477Z,9.03
2023-03-06T15:59:33.079Z,8.90
2023-03-06T16:02:10.906Z,8.50
2023-03-06T16:04:37.644Z,8.23
2023-03-06T16:07:04.337Z,8.03
2023-03-06T16:09:32.582Z,8.07
2023-03-06T16:11:59.486Z,8.67
2023-03-06T16:14:26.407Z,8.23
2023-03-06T16:16:54.476Z,8.13
2023-03-06T16:19:27.774Z,10.27
2023-03-06T16:21:56.392Z,8.63
2023-03-06T16:24:23.341Z,9.37
2023-03-06T16:26:52.440Z,9.80
2023-03-06T16:29:24.614Z,9.10
2023-03-06T16:31:51.537Z,9.80
2023-03-06T16:34:21.199Z,9.50
2023-03-06T16:36:49.206Z,9.20
2023-03-06T16:39:20.989Z,9.57
2023-03-06T16:41:49.160Z,10.50
2023-03-06T16:44:16.306Z,9.73
2023-03-06T16:46:45.786Z,10.53
2023-03-06T16:49:25.409Z,10.13
2023-03-06T16:51:52.913Z,9.90
2023-03-06T16:54:20.223Z,10.27
2023-03-06T16:56:46.992Z,12.43
2023-03-06T16:59:13.886Z,11.33
2023-03-06T17:01:44.883Z,11.17
2023-03-06T17:04:11.672Z,13.23
2023-03-06T17:06:38.925Z,11.87
2023-03-06T17:09:05.892Z,12.63
2023-03-06T17:11:32.523Z,12.87
2023-03-06T17:13:59.340Z,12.60
2023-03-06T17:16:26.074Z,13.33
2023-03-06T17:18:54.555Z,12.47
2023-03-06T17:21:21.304Z,13.90
2023-03-06T17:23:48.071Z,12.83
2023-03-06T17:26:18.682Z,13.47
2023-03-06T17:28:45.765Z,13.07
2023-03-06T17:31:12.937Z,13.00
2023-03-06T17:33:39.890Z,13.70
2023-03-06T17:36:07.038Z,12.90
2023-03-06T17:38:34.086Z,12.77
2023-03-06T17:41:05.359Z,13.27
2023-03-06T17:43:32.864Z,12.37
2023-03-06T17:46:07.640Z,12.93
2023-03-06T17:48:34.851Z,11.67
2023-03-06T17:51:02.170Z,11.37
2023-03-06T17:53:28.877Z,12.13
2023-03-06T17:55:57.970Z,11.97
2023-03-06T17:58:26.113Z,11.77
2023-03-06T18:00:53.108Z,11.77
2023-03-06T18:03:19.800Z,11.10
2023-03-06T18:05:46.442Z,11.13
2023-03-06T18:08:13.721Z,11.50
2023-03-06T18:10:41.647Z,11.77
2023-03-06T18:13:09.453Z,11.83
2023-03-06T18:15:40.618Z,11.50
2023-03-06T18:18:08.543Z,11.53
2023-03-06T18:20:40.850Z,12.33
2023-03-06T18:23:07.498Z,11.87
2023-03-06T18:25:34.517Z,12.03
2023-03-06T18:28:01.162Z,13.13
2023-03-06T18:30:27.869Z,12.60
2023-03-06T18:32:54.860Z,13.00
2023-03-06T18:35:21.853Z,12.13
2023-03-06T18:37:48.542Z,11.80
2023-03-06T18:40:15.580Z,11.43
2023-03-06T18:42:42.291Z,11.67
2023-03-06T18:45:10.064Z,12.93
2023-03-06T18:47:36.835Z,12.60
2023-03-06T18:50:03.782Z,11.43
2023-03-06T18:52:30.439Z,12.23
2023-03-06T18:54:57.129Z,11.93
2023-03-06T18:57:23.786Z,12.57
2023-03-06T18:59:50.598Z,11.83
2023-03-06T19:02:17.400Z,12.23
2023-03-06T19:04:44.072Z,12.57
2023-03-06T19:07:13.463Z,12.43
2023-03-06T19:09:40.344Z,13.17
2023-03-06T19:12:07.248Z,13.80
2023-03-06T19:14:34.238Z,13.47
2023-03-06T19:17:01.850Z,12.07
2023-03-06T19:19:29.333Z,12.83
2023-03-06T19:21:59.006Z,13.80
2023-03-06T19:24:25.864Z,12.17
2023-03-06T19:26:52.562Z,13.33
2023-03-06T19:29:19.416Z,14.30
2023-03-06T19:31:46.202Z,13.23
2023-03-06T19:34:12.885Z,15.57
2023-03-06T19:36:40.692Z,13.00
2023-03-06T19:39:08.214Z,13.30
2023-03-06T19:41:35.044Z,12.30
2023-03-06T19:44:03.252Z,12.77
2023-03-06T19:46:31.609Z,13.07
2023-03-06T19:49:00.927Z,12.87
2023-03-06T19:51:28.238Z,13.97
2023-03-06T19:53:56.407Z,13.37
2023-03-06T19:56:28.981Z,12.83
2023-03-06T19:58:56.357Z,13.30
2023-03-06T20:01:24.893Z,13.30
2023-03-06T20:03:58.444Z,13.63
2023-03-06T20:06:31.036Z,13.90
2023-03-06T20:08:57.721Z,13.60
2023-03-06T20:11:29.660Z,13.47
2023-03-06T20:13:58.484Z,13.83
2023-03-06T20:16:27.742Z,13.20
2023-03-06T20:18:55.228Z,14.50
2023-03-06T20:21:23.220Z,15.00
2023-03-06T20:23:50.954Z,12.83
2023-03-06T20:26:18.871Z,13.37
2023-03-06T20:28:45.728Z,13.10
2023-03-06T20:31:17.162Z,13.90
2023-03-06T20:33:44.857Z,13.83
2023-03-06T20:36:13.891Z,13.37
2023-03-06T20:38:40.776Z,13.47
2023-03-06T20:41:08.777Z,14.30
2023-03-06T20:43:35.675Z,13.50
2023-03-06T20:46:03.799Z,14.50
2023-03-06T20:48:30.536Z,14.27
2023-03-06T20:51:05.191Z,14.47
2023-03-06T20:53:32.571Z,13.67
2023-03-06T20:55:59.223Z,15.63
2023-03-06T20:58:28.535Z,15.60
2023-03-06T21:00:55.399Z,14.90
2023-03-06T21:03:22.115Z,14.17
2023-03-06T21:05:48.935Z,14.57
2023-03-06T21:08:16.142Z,15.20
2023-03-06T21:10:45.884Z,14.50
2023-03-06T21:13:13.454Z,14.90
2023-03-06T21:15:41.633Z,14.70
2023-03-06T21:18:09.243Z,15.53
2023-03-06T21:20:39.320Z,14.97
2023-03-06T21:23:06.543Z,15.67
2023-03-06T21:25:33.702Z,16.17
2023-03-06T21:28:00.524Z,16.00
2023-03-06T21:30:30.336Z,16.03
2023-03-06T21:32:56.994Z,14.63
2023-03-06T21:35:23.716Z,15.53
2023-03-06T21:37:50.402Z,18.53
2023-03-06T21:40:17.199Z,14.57
2023-03-06T21:42:43.858Z,15.37
2023-03-06T21:45:10.920Z,14.97
2023-03-06T21:47:38.734Z,15.73
2023-03-06T21:50:07.893Z,15.00
2023-03-06T21:52:34.702Z,15.57
2023-03-06T21:55:01.470Z,16.33
2023-03-06T21:57:28.187Z,16.87
2023-03-06T21:59:54.893Z,16.33
2023-03-06T22:02:21.939Z,16.37
2023-03-06T22:04:52.676Z,16.23
2023-03-06T22:07:20.526Z,15.30
2023-03-06T22:09:47.599Z,15.87
2023-03-06T22:12:14.429Z,16.27
2023-03-06T22:14:43.710Z,16.00
2023-03-06T22:17:10.454Z,15.63
2023-03-06T22:19:37.119Z,17.17
2023-03-06T22:22:04.082Z,15.90
2023-03-06T22:24:31.904Z,16.83
2023-03-06T22:26:58.882Z,16.23
2023-03-06T22:29:25.713Z,15.97
2023-03-06T22:31:52.870Z,17.07
2023-03-06T22:34:19.587Z,15.57
2023-03-06T22:36:46.370Z,15.40
2023-03-06T22:39:13.951Z,15.37
2023-03-06T22:41:41.070Z,14.40
2023-03-06T22:44:07.743Z,14.80
2023-03-06T22:46:34.520Z,14.63
2023-03-06T22:49:02.159Z,15.13
2023-03-06T22:51:29.504Z,15.20
2023-03-06T22:53:56.186Z,15.27
2023-03-06T22:56:23.639Z,15.80
2023-03-06T22:58:50.487Z,15.00
2023-03-06T23:01:20.029Z,14.23
2023-03-06T23:03:52.592Z,15.23
2023-03-06T23:06:22.205Z,14.03
2023-03-06T23:08:51.391Z,14.57
2023-03-06T23:11:19.702Z,13.87
2023-03-06T23:14:05.790Z,13.77
2023-03-06T23:16:51.320Z,13.40
2023-03-06T23:19:36.503Z,14.17
2023-03-06T23:22:21.765Z,13.10
2023-03-06T23:25:07.463Z,14.50
2023-03-06T23:27:35.937Z,13.43
2023-03-06T23:30:04.784Z,14.27
2023-03-06T23:32:34.669Z,13.27
2023-03-06T23:35:01.538Z,13.30
2023-03-06T23:37:28.285Z,14.03
2023-03-06T23:39:55.185Z,12.70
2023-03-06T23:42:22.616Z,13.90
2023-03-06T23:44:49.446Z,13.57
2023-03-06T23:47:17.178Z,12.57
2023-03-06T23:49:43.904Z,12.67
2023-03-06T23:52:10.540Z,13.30
2023-03-06T23:54:37.220Z,13.33
2023-03-06T23:57:04.038Z,12.23
2023-03-06T23:59:30.895Z,12.37
